Time;durP1;ratioP1;P1;durP2;ratioP2;P2;SDS_P1;SDS_P2;PMS_P1;PMS_P2;Temp;Humidity;BMP_temperature;BMP_pressure;BME280_temperature;BME280_humidity;BME280_pressure;Samples;Min_cycle;Max_cycle;Signal;HPM_P1;HPM_P2
2021/01/18 00:02:52;;;;;;;37.00;31.80;;;;;;;3.72;63.12;98341.22;8304257;28;20201;-78
2021/01/18 00:06:54;;;;;;;34.97;28.90;;;;;;;3.75;63.60;98341.22;8315546;28;20275;-78
2021/01/18 00:10:56;;;;;;;34.13;28.90;;;;;;;3.77;63.91;98348.84;8370261;28;20199;-78
2021/01/18 00:14:58;;;;;;;32.57;26.93;;;;;;;3.71;64.25;98345.50;8370655;28;20210;-78
2021/01/18 00:18:59;;;;;;;29.30;25.10;;;;;;;3.82;64.75;98344.53;8371290;28;20207;-78
2021/01/18 00:23:03;;;;;;;28.77;24.90;;;;;;;3.65;66.02;98354.97;8370214;28;20542;-78
2021/01/18 00:27:05;;;;;;;28.27;23.53;;;;;;;3.76;66.03;98348.00;8370476;28;20585;-78
2021/01/18 00:31:07;;;;;;;27.13;23.73;;;;;;;3.84;65.95;98346.22;8370141;28;20200;-78
2021/01/18 00:35:11;;;;;;;32.37;24.37;;;;;;;3.87;66.52;98342.78;8369821;28;20311;-78
2021/01/18 00:39:13;;;;;;;29.70;23.53;;;;;;;3.82;66.75;98339.41;8369213;28;20207;-78
2021/01/18 00:43:18;;;;;;;30.33;24.83;;;;;;;3.89;66.93;98338.47;8369930;28;20204;-78
2021/01/18 00:47:20;;;;;;;30.53;22.40;;;;;;;3.98;66.93;98335.81;8370283;28;20212;-78
2021/01/18 00:51:22;;;;;;;30.43;22.40;;;;;;;4.06;67.02;98343.41;8369429;28;20200;-78
2021/01/18 00:55:25;;;;;;;29.53;21.83;;;;;;;4.01;67.55;98334.91;8368561;28;20203;-78
2021/01/18 00:59:27;;;;;;;32.47;21.80;;;;;;;4.07;67.52;98342.53;8369323;28;20200;-78
2021/01/18 01:03:29;;;;;;;27.93;20.70;;;;;;;4.02;67.86;98334.06;8367175;28;20243;-78
2021/01/18 01:07:30;;;;;;;30.40;20.70;;;;;;;4.15;67.66;98330.47;8367942;28;20247;-77
2021/01/18 01:11:33;;;;;;;23.70;18.23;;;;;;;4.19;67.86;98327.00;8367666;28;20216;-78
2021/01/18 01:15:35;;;;;;;24.83;19.30;;;;;;;4.26;67.37;98326.03;8367963;28;20204;-77
2021/01/18 01:19:37;;;;;;;24.90;18.07;;;;;;;4.30;66.95;98327.72;8368203;28;20196;-78
2021/01/18 01:23:39;;;;;;;25.80;17.60;;;;;;;4.34;66.97;98325.97;8368241;28;20215;-78
2021/01/18 01:27:42;;;;;;;25.13;17.73;;;;;;;4.31;67.07;98333.69;8367827;28;20289;-78
2021/01/18 01:31:43;;;;;;;25.93;18.10;;;;;;;4.36;67.23;98331.06;8367884;28;20210;-78
2021/01/18 01:35:45;;;;;;;22.40;17.17;;;;;;;4.26;67.34;98343.16;8367650;28;20235;-78
2021/01/18 01:39:47;;;;;;;20.73;17.37;;;;;;;4.34;66.97;98341.34;8367935;28;20203;-78
2021/01/18 01:43:49;;;;;;;22.23;17.03;;;;;;;4.44;66.99;98345.47;8369232;28;20219;-78
2021/01/18 01:47:53;;;;;;;21.80;17.17;;;;;;;4.37;67.19;98350.72;8367697;28;20557;-77
2021/01/18 01:51:55;;;;;;;22.80;16.63;;;;;;;4.41;67.31;98342.09;8366701;28;20242;-77
2021/01/18 01:55:58;;;;;;;21.00;16.63;;;;;;;4.37;67.31;98338.72;8366439;28;20207;-77
2021/01/18 02:00:01;;;;;;;17.80;15.43;;;;;;;4.29;68.09;98330.31;8366371;28;20643;-77
2021/01/18 02:04:03;;;;;;;22.47;16.43;;;;;;;4.25;68.42;98338.91;8366604;28;20200;-77
2021/01/18 02:08:06;;;;;;;20.60;15.80;;;;;;;4.33;68.12;98331.09;8366082;28;20699;-78
2021/01/18 02:12:08;;;;;;;19.93;15.70;;;;;;;4.35;67.95;98334.50;8366345;28;20200;-77
2021/01/18 02:16:18;;;;;;;16.60;14.20;;;;;;;4.37;67.67;98338.72;8365595;28;20215;-77
2021/01/18 02:20:58;;;;;;;16.87;14.83;;;;;;;4.41;67.79;98342.94;8366262;28;20721;-77
2021/01/18 02:25:13;;;;;;;14.70;13.23;;;;;;;4.32;67.75;98345.63;8318688;28;20556;-77
2021/01/18 02:29:24;;;;;;;16.13;14.47;;;;;;;4.31;68.31;98351.63;8366291;28;20203;-78
2021/01/18 02:34:13;;;;;;;15.27;13.77;;;;;;;4.22;68.00;98351.75;8367766;28;20220;-78
2021/01/18 02:38:21;;;;;;;15.50;13.90;;;;;;;4.29;67.89;98359.34;8367230;28;20212;-78
2021/01/18 02:42:25;;;;;;;14.00;12.67;;;;;;;4.39;67.74;98349.81;8366917;28;20188;-78
2021/01/18 02:46:27;;;;;;;14.07;12.67;;;;;;;4.20;68.61;98361.19;8365635;28;20235;-77
2021/01/18 02:50:31;;;;;;;13.80;12.40;;;;;;;4.23;68.31;98363.72;8365697;28;20598;-77
2021/01/18 02:54:34;;;;;;;12.90;11.57;;;;;;;4.27;67.83;98367.94;8365184;28;20204;-78
2021/01/18 02:58:40;;;;;;;12.20;11.00;;;;;;;4.26;68.18;98364.50;8365922;28;20298;-77
2021/01/18 03:02:46;;;;;;;13.43;12.13;;;;;;;4.34;67.97;98374.69;8365457;28;20208;-78
2021/01/18 03:06:52;;;;;;;12.53;11.33;;;;;;;4.48;67.43;98370.22;8365788;28;20244;-78
2021/01/18 03:11:01;;;;;;;12.50;11.30;;;;;;;4.39;67.10;98360.06;8365818;28;20207;-78
2021/01/18 03:15:04;;;;;;;12.30;11.10;;;;;;;4.30;67.85;98366.19;8365715;28;20654;-78
2021/01/18 03:19:07;;;;;;;11.40;10.30;;;;;;;4.42;67.50;98372.03;8364939;28;20635;-78
2021/01/18 03:23:09;;;;;;;9.63;8.73;;;;;;;4.34;67.91;98377.25;8365203;28;20203;-78
2021/01/18 03:27:13;;;;;;;9.33;8.53;;;;;;;4.34;68.02;98368.69;8366290;28;20220;-78
2021/01/18 03:31:14;;;;;;;8.83;7.93;;;;;;;4.23;68.54;98371.41;8371191;28;20200;-78
2021/01/18 03:35:20;;;;;;;9.23;8.30;;;;;;;4.25;68.37;98367.94;8371418;28;20581;-78
2021/01/18 03:39:21;;;;;;;8.97;8.17;;;;;;;4.20;69.01;98368.88;8371785;28;20200;-78
2021/01/18 03:43:24;;;;;;;8.63;7.83;;;;;;;4.27;68.21;98371.34;8370890;28;20208;-78
2021/01/18 03:47:26;;;;;;;8.93;8.13;;;;;;;4.34;68.20;98374.69;8370407;28;20219;-78
2021/01/18 03:51:31;;;;;;;8.70;7.90;;;;;;;4.28;68.05;98385.00;8370737;28;20235;-78
2021/01/18 03:55:33;;;;;;;9.33;8.40;;;;;;;4.37;67.74;98384.88;8371100;28;20219;-78
2021/01/18 03:59:35;;;;;;;10.37;9.47;;;;;;;4.20;68.54;98386.81;8370609;28;20199;-78
2021/01/18 04:03:37;;;;;;;10.57;9.63;;;;;;;4.28;68.34;98385.88;8370115;28;20562;-78
2021/01/18 04:07:38;;;;;;;11.03;9.97;;;;;;;4.18;68.67;98391.94;8369527;28;20262;-78
2021/01/18 04:11:40;;;;;;;13.00;11.47;;;;;;;4.22;68.51;98395.34;8370218;28;20203;-78
2021/01/18 04:15:43;;;;;;;13.47;11.93;;;;;;;4.25;68.33;98391.03;8369311;28;20208;-78
2021/01/18 04:19:45;;;;;;;15.10;12.57;;;;;;;4.21;69.06;98393.66;8369500;28;20667;-78
2021/01/18 04:23:46;;;;;;;17.30;13.50;;;;;;;4.01;69.89;98396.44;8369625;28;20200;-78
2021/01/18 04:27:49;;;;;;;15.83;13.37;;;;;;;4.12;69.44;98399.72;8369151;28;20223;-77
2021/01/18 04:31:52;;;;;;;14.27;12.77;;;;;;;4.19;69.46;98405.59;8369055;28;20212;-78
2021/01/18 04:35:55;;;;;;;17.97;13.70;;;;;;;4.19;68.79;98418.44;8369225;28;20211;-78
2021/01/18 04:39:57;;;;;;;16.60;13.80;;;;;;;4.26;69.65;98420.06;8368965;28;20635;-78
2021/01/18 04:43:59;;;;;;;14.87;13.07;;;;;;;4.28;69.04;98426.03;8370987;28;20208;-77
2021/01/18 04:48:02;;;;;;;17.50;13.70;;;;;;;4.41;68.74;98419.88;8369087;28;20227;-78
2021/01/18 04:52:09;;;;;;;16.30;13.80;;;;;;;4.24;68.83;98417.50;8371183;28;20215;-78
2021/01/18 04:56:28;;;;;;;15.63;13.67;;;;;;;4.44;68.46;98419.84;8370827;28;20204;-79
2021/01/18 05:00:35;;;;;;;17.20;14.07;;;;;;;4.47;68.31;98419.81;8373107;28;20612;-79
2021/01/18 05:04:39;;;;;;;18.13;14.13;;;;;;;4.44;68.32;98424.97;8369490;28;20204;-78
2021/01/18 05:09:18;;;;;;;17.60;13.93;;;;;;;4.44;68.30;98417.28;8369098;28;20240;-78
2021/01/18 05:13:20;;;;;;;16.90;14.10;;;;;;;4.41;68.57;98417.31;8348224;28;20211;-78
2021/01/18 05:17:39;;;;;;;16.70;13.60;;;;;;;4.47;67.96;98422.38;8368044;28;20235;-78
2021/01/18 05:21:45;;;;;;;17.87;14.67;;;;;;;4.49;68.36;98432.59;8368702;28;20666;-77
2021/01/18 05:25:47;;;;;;;14.63;13.13;;;;;;;4.59;67.72;98428.19;8368059;28;20227;-77
2021/01/18 05:29:55;;;;;;;15.47;13.20;;;;;;;4.62;67.60;98436.72;8368049;28;20639;-78
2021/01/18 05:33:57;;;;;;;17.17;13.17;;;;;;;4.47;68.45;98445.47;8367992;28;20675;-78
2021/01/18 05:38:03;;;;;;;14.30;12.63;;;;;;;4.65;67.80;98444.38;8368190;28;20208;-78
2021/01/18 05:42:20;;;;;;;14.37;12.87;;;;;;;4.83;66.91;98450.97;8368012;28;20653;-78
2021/01/18 05:46:22;;;;;;;16.73;13.47;;;;;;;4.85;67.08;98450.97;8368954;28;20252;-78
2021/01/18 05:50:24;;;;;;;15.07;13.40;;;;;;;4.77;67.25;98457.91;8369262;28;20239;-78
2021/01/18 05:54:30;;;;;;;14.60;13.13;;;;;;;4.77;67.24;98457.91;8364136;28;20224;-78
2021/01/18 05:58:33;;;;;;;15.03;12.80;;;;;;;4.73;67.40;98464.81;8366764;28;20200;-78
2021/01/18 06:02:38;;;;;;;16.47;14.77;;;;;;;4.80;67.13;98463.88;8361480;28;20216;-78
2021/01/18 06:06:42;;;;;;;17.90;15.00;;;;;;;4.74;67.39;98461.38;8365638;28;20244;-78
2021/01/18 06:10:46;;;;;;;16.63;14.07;;;;;;;4.63;68.05;98461.50;8365281;28;20223;-78
2021/01/18 06:15:06;;;;;;;15.87;14.13;;;;;;;4.58;67.87;98467.56;8364897;28;20199;-78
2021/01/18 06:19:08;;;;;;;14.63;12.80;;;;;;;4.73;67.33;98466.53;8366507;28;20192;-78
2021/01/18 06:23:11;;;;;;;16.07;14.20;;;;;;;4.68;67.12;98466.56;8365395;28;20199;-78
2021/01/18 06:27:30;;;;;;;16.43;13.90;;;;;;;4.78;66.88;98475.88;8364868;28;20220;-78
2021/01/18 06:31:43;;;;;;;15.17;13.57;;;;;;;4.70;67.03;98482.78;8365096;28;20230;-78
2021/01/18 06:35:45;;;;;;;14.60;12.90;;;;;;;4.80;66.83;98492.09;8361322;28;20208;-77
2021/01/18 06:39:48;;;;;;;16.03;14.30;;;;;;;4.76;66.88;98493.00;8331160;28;20232;-77
2021/01/18 06:43:55;;;;;;;14.90;13.37;;;;;;;4.65;66.75;98495.69;8331783;28;20215;-76
2021/01/18 06:47:58;;;;;;;15.00;13.10;;;;;;;4.68;66.55;98499.94;8331396;28;20229;-76
2021/01/18 06:52:00;;;;;;;15.20;12.63;;;;;;;4.68;66.75;98497.34;8331264;28;20258;-77
2021/01/18 06:56:30;;;;;;;14.37;12.53;;;;;;;4.68;66.16;98494.78;8331379;28;20211;-76
2021/01/18 07:00:39;;;;;;;18.77;10.30;;;;;;;7.78;86.57;98508.91;8354348;28;20195;-79
2021/01/18 07:04:44;;;;;;;18.77;10.23;;;;;;;8.89;66.28;98512.91;8382801;28;20566;-79
2021/01/18 07:08:51;;;;;;;13.70;12.10;;;;;;;6.69;61.04;98511.31;8384326;28;575572;-76
2021/01/18 07:12:58;;;;;;;14.33;12.37;;;;;;;6.09;62.30;98522.72;8404746;28;20226;-77
2021/01/18 07:17:19;;;;;;;12.60;11.30;;;;;;;5.66;63.49;98537.09;8404747;28;20199;-77
2021/01/18 07:21:22;;;;;;;12.20;11.00;;;;;;;5.46;64.17;98526.28;8405165;28;20203;-77
2021/01/18 07:25:25;;;;;;;13.37;11.80;;;;;;;5.40;64.37;98534.91;8404426;28;20203;-76
2021/01/18 07:29:27;;;;;;;12.40;11.17;;;;;;;5.26;65.24;98540.25;8388051;28;20239;-77
2021/01/18 07:33:29;;;;;;;13.03;11.63;;;;;;;5.20;64.81;98549.78;8371698;28;20228;-77
2021/01/18 07:37:31;;;;;;;12.47;11.27;;;;;;;5.13;65.07;98561.81;8371312;28;20199;-76
2021/01/18 07:41:34;;;;;;;14.07;11.67;;;;;;;4.93;65.59;98562.09;8366454;28;20231;-76
2021/01/18 07:45:38;;;;;;;12.33;10.83;;;;;;;5.09;65.28;98557.59;8368124;28;20231;-76
2021/01/18 07:49:45;;;;;;;11.60;9.80;;;;;;;4.90;65.58;98557.81;8370306;28;20204;-79
2021/01/18 07:53:47;;;;;;;13.40;10.47;;;;;;;5.00;65.14;98558.56;8337498;28;20212;-77
2021/01/18 07:57:49;;;;;;;12.30;11.00;;;;;;;4.91;65.75;98561.22;8338411;28;20239;-77
2021/01/18 08:01:57;;;;;;;12.93;10.20;;;;;;;5.11;65.42;98557.59;8349890;28;20591;-78
2021/01/18 08:06:10;;;;;;;11.90;10.43;;;;;;;5.04;65.61;98555.06;8369941;28;20211;-77
2021/01/18 08:10:12;;;;;;;10.80;9.70;;;;;;;5.08;65.36;98556.75;8370430;28;20259;-77
2021/01/18 08:14:16;;;;;;;11.33;10.13;;;;;;;5.06;65.51;98563.63;8367373;28;20227;-78
2021/01/18 08:18:28;;;;;;;10.53;9.43;;;;;;;5.02;65.23;98563.69;8380169;28;20227;-77
2021/01/18 08:22:32;;;;;;;10.00;9.07;;;;;;;4.97;65.90;98571.44;8369182;28;20283;-77
2021/01/18 08:26:50;;;;;;;10.47;9.37;;;;;;;4.80;66.37;98569.06;8369308;28;20224;-77
2021/01/18 08:30:56;;;;;;;9.53;8.57;;;;;;;4.81;66.57;98575.91;8368021;28;20230;-77
2021/01/18 08:34:58;;;;;;;9.37;8.33;;;;;;;4.91;66.17;98568.94;8369525;28;20231;-77
2021/01/18 08:39:10;;;;;;;9.30;8.20;;;;;;;4.94;65.82;98583.47;8369120;28;20579;-78
2021/01/18 08:43:15;;;;;;;9.30;8.30;;;;;;;4.76;66.45;98585.38;8368795;28;20548;-77
2021/01/18 08:47:38;;;;;;;8.13;7.43;;;;;;;4.79;66.45;98585.31;8375439;28;20281;-77
2021/01/18 08:51:44;;;;;;;8.73;7.90;;;;;;;4.98;65.76;98593.66;8374466;28;20232;-77
2021/01/18 08:55:47;;;;;;;8.30;7.40;;;;;;;5.02;66.07;98591.91;8369270;28;20210;-77
2021/01/18 09:00:00;;;;;;;7.70;7.00;;;;;;;5.07;65.31;98587.59;8351428;28;20227;-78
2021/01/18 09:04:05;;;;;;;8.03;7.23;;;;;;;5.09;65.40;98590.97;8369811;28;20184;-77
2021/01/18 09:08:08;;;;;;;8.17;7.37;;;;;;;5.15;65.30;98595.19;8350703;28;20252;-78
2021/01/18 09:12:11;;;;;;;8.23;7.37;;;;;;;5.27;64.45;98595.03;8337923;28;20201;-77
2021/01/18 09:16:13;;;;;;;8.10;6.40;;;;;;;5.29;64.48;98595.84;8337836;28;20616;-78
2021/01/18 09:20:16;;;;;;;7.97;7.00;;;;;;;5.32;64.72;98597.56;8337743;28;20659;-78
2021/01/18 09:24:18;;;;;;;7.50;6.67;;;;;;;5.33;64.27;98604.38;8363778;28;21049;-77
2021/01/18 09:28:20;;;;;;;7.43;6.13;;;;;;;5.47;63.74;98605.06;8376208;28;20239;-78
2021/01/18 09:32:22;;;;;;;7.83;6.40;;;;;;;5.29;64.27;98608.69;8394907;28;20227;-78
2021/01/18 09:36:24;;;;;;;7.57;5.90;;;;;;;5.52;63.94;98604.97;8372621;28;20343;-78
2021/01/18 09:40:27;;;;;;;9.93;6.40;;;;;;;5.50;63.55;98610.13;8371441;28;20207;-78
2021/01/18 09:44:30;;;;;;;10.37;6.60;;;;;;;5.48;63.30;98607.59;8371227;28;20196;-78
2021/01/18 09:48:32;;;;;;;8.97;6.50;;;;;;;5.58;63.19;98602.31;8371806;28;20227;-78
2021/01/18 09:52:34;;;;;;;6.57;5.83;;;;;;;5.65;63.05;98609.94;8371802;28;20568;-78
2021/01/18 09:56:38;;;;;;;8.30;5.67;;;;;;;5.75;63.46;98609.78;8370820;28;20207;-78
2021/01/18 10:00:42;;;;;;;8.47;6.30;;;;;;;5.75;62.56;98609.78;8369426;28;20196;-77
2021/01/18 10:04:48;;;;;;;7.63;6.00;;;;;;;5.58;62.65;98610.00;8371440;28;21015;-78
2021/01/18 10:08:52;;;;;;;7.83;6.10;;;;;;;5.84;63.21;98607.06;8372729;28;20250;-78
2021/01/18 10:12:54;;;;;;;7.93;6.27;;;;;;;5.84;62.31;98601.94;8372244;28;20196;-77
2021/01/18 10:16:58;;;;;;;8.17;6.03;;;;;;;5.83;62.20;98600.25;8373861;28;20208;-78
2021/01/18 10:21:01;;;;;;;8.33;5.97;;;;;;;5.96;62.13;98604.38;8373750;28;20221;-78
2021/01/18 10:25:08;;;;;;;10.57;6.97;;;;;;;5.79;62.59;98596.88;8372927;28;20226;-76
2021/01/18 10:29:21;;;;;;;8.60;6.67;;;;;;;6.10;61.33;98605.88;8372098;28;20223;-78
2021/01/18 10:33:24;;;;;;;12.50;7.90;;;;;;;6.02;61.67;98596.56;8368965;28;20224;-78
2021/01/18 10:37:27;;;;;;;16.20;11.80;;;;;;;5.87;61.76;98595.03;8367824;28;20213;-78
2021/01/18 10:41:32;;;;;;;12.63;9.17;;;;;;;6.06;61.28;98595.63;8345988;28;20302;-77
2021/01/18 10:45:47;;;;;;;10.97;9.20;;;;;;;6.05;61.34;98603.34;8376430;28;20204;-77
2021/01/18 10:49:52;;;;;;;8.87;6.93;;;;;;;6.03;61.06;98594.81;8368434;28;20232;-77
2021/01/18 10:53:57;;;;;;;9.30;7.00;;;;;;;6.19;60.82;98598.00;8337850;28;20271;-77
2021/01/18 10:58:26;;;;;;;11.53;7.20;;;;;;;6.12;61.05;98580.97;8340819;28;20210;-77
2021/01/18 11:02:28;;;;;;;10.10;8.03;;;;;;;6.11;61.04;98592.13;8369883;28;20192;-77
2021/01/18 11:06:34;;;;;;;9.43;7.70;;;;;;;5.96;60.62;98583.81;8370603;28;20300;-77
2021/01/18 11:10:38;;;;;;;10.03;7.63;;;;;;;5.75;60.95;98579.81;8375593;28;20598;-77
2021/01/18 11:14:58;;;;;;;13.07;7.93;;;;;;;5.77;61.15;98580.63;8391520;28;20221;-78
2021/01/18 11:19:00;;;;;;;9.87;7.10;;;;;;;5.96;60.80;98581.22;8381015;28;20603;-77
2021/01/18 11:23:09;;;;;;;11.33;7.67;;;;;;;5.81;61.37;98568.59;8367174;28;20212;-78
2021/01/18 11:27:11;;;;;;;10.77;7.43;;;;;;;6.00;60.91;98582.03;8367201;28;20208;-77
2021/01/18 11:31:13;;;;;;;12.83;8.00;;;;;;;5.97;60.52;98589.78;8368550;28;20200;-77
2021/01/18 11:35:16;;;;;;;11.43;7.13;;;;;;;6.09;60.24;98586.16;8367649;28;20596;-78
2021/01/18 11:39:18;;;;;;;12.10;7.20;;;;;;;6.23;59.85;98572.19;8367817;28;20199;-77
2021/01/18 11:43:20;;;;;;;12.13;7.50;;;;;;;6.21;59.92;98573.13;8367122;28;20215;-78
2021/01/18 11:47:22;;;;;;;11.50;7.80;;;;;;;6.10;59.93;98580.16;8380683;28;20224;-78
2021/01/18 11:51:24;;;;;;;13.77;8.10;;;;;;;6.06;60.49;98567.34;8371739;28;20217;-77
2021/01/18 11:55:27;;;;;;;9.83;7.30;;;;;;;5.93;60.80;98563.25;8371363;28;20208;-78
2021/01/18 11:59:28;;;;;;;9.43;6.67;;;;;;;6.05;60.03;98563.09;8370392;28;20200;-77
2021/01/18 12:03:30;;;;;;;12.60;7.23;;;;;;;6.06;59.76;98556.22;8371653;28;20200;-77
2021/01/18 12:07:32;;;;;;;11.83;7.60;;;;;;;6.04;59.92;98555.41;8371270;28;20238;-77
2021/01/18 12:11:37;;;;;;;15.40;7.27;;;;;;;5.92;60.20;98555.53;8370460;28;20200;-77
2021/01/18 12:15:41;;;;;;;11.63;6.90;;;;;;;5.82;60.31;98553.13;8371307;28;20202;-77
2021/01/18 12:19:43;;;;;;;9.73;6.40;;;;;;;5.87;60.38;98547.91;8370870;28;20200;-77
2021/01/18 12:23:45;;;;;;;11.07;7.23;;;;;;;5.93;60.04;98547.81;8370881;28;20199;-77
2021/01/18 12:27:51;;;;;;;13.27;7.23;;;;;;;6.00;60.04;98540.91;8370191;28;20223;-78
2021/01/18 12:31:53;;;;;;;11.20;6.63;;;;;;;5.68;60.57;98543.06;8370555;28;20551;-78
2021/01/18 12:35:55;;;;;;;12.37;7.77;;;;;;;5.89;60.16;98535.88;8370049;28;20778;-78
2021/01/18 12:39:56;;;;;;;12.93;7.00;;;;;;;6.03;60.08;98546.81;8354115;28;20204;-77
2021/01/18 12:44:01;;;;;;;12.67;7.20;;;;;;;6.04;59.98;98545.94;8337042;28;20211;-78
2021/01/18 12:48:03;;;;;;;14.77;8.37;;;;;;;5.91;60.39;98547.00;8369178;28;20236;-77
2021/01/18 12:52:05;;;;;;;16.03;8.27;;;;;;;5.99;59.87;98545.16;8336076;28;20724;-76
2021/01/18 12:56:07;;;;;;;13.00;7.63;;;;;;;6.00;59.77;98543.47;8366422;28;20199;-77
2021/01/18 13:00:10;;;;;;;13.23;8.17;;;;;;;6.06;59.60;98533.06;8367384;28;20670;-77
2021/01/18 13:04:12;;;;;;;11.03;7.57;;;;;;;6.10;59.14;98536.44;8368642;28;20231;-76
2021/01/18 13:08:14;;;;;;;11.33;7.63;;;;;;;6.07;59.29;98532.19;8369381;28;20678;-77
2021/01/18 13:12:19;;;;;;;12.60;7.80;;;;;;;6.04;59.51;98527.13;8368466;28;20195;-77
2021/01/18 13:16:23;;;;;;;14.07;8.57;;;;;;;6.08;58.85;98533.88;8368328;28;20211;-77
2021/01/18 13:20:25;;;;;;;12.50;7.70;;;;;;;6.12;59.19;98532.97;8368213;28;20242;-77
2021/01/18 13:24:27;;;;;;;12.57;7.90;;;;;;;6.15;58.98;98527.78;8368441;28;20203;-77
2021/01/18 13:28:29;;;;;;;11.73;7.60;;;;;;;6.24;59.16;98532.75;8368418;28;20227;-77
2021/01/18 13:32:32;;;;;;;12.60;7.60;;;;;;;6.05;59.25;98527.09;8368152;28;20216;-77
2021/01/18 13:36:34;;;;;;;11.93;8.53;;;;;;;6.19;58.97;98528.56;8355872;28;20223;-76
2021/01/18 13:40:36;;;;;;;18.73;9.30;;;;;;;5.94;59.48;98526.38;8367666;28;20200;-77
2021/01/18 13:44:37;;;;;;;14.60;9.57;;;;;;;6.05;59.48;98536.50;8367252;28;20721;-77
2021/01/18 13:48:41;;;;;;;14.27;8.73;;;;;;;6.07;59.23;98519.31;8367537;28;20227;-77
2021/01/18 13:52:43;;;;;;;13.53;8.37;;;;;;;5.97;59.10;98528.09;8367368;28;20204;-77
2021/01/18 13:56:44;;;;;;;14.03;8.40;;;;;;;5.90;59.34;98527.28;8367628;28;20250;-77
2021/01/18 14:00:46;;;;;;;12.37;8.77;;;;;;;5.99;59.43;98521.19;8367608;28;20569;-77
2021/01/18 14:04:50;;;;;;;13.87;9.23;;;;;;;5.94;59.57;98518.69;8366541;28;20208;-77
2021/01/18 14:08:52;;;;;;;13.50;8.97;;;;;;;5.56;60.24;98512.44;8367103;28;20243;-77
2021/01/18 14:12:54;;;;;;;16.30;10.70;;;;;;;5.79;59.93;98509.50;8366852;28;20253;-77
2021/01/18 14:16:55;;;;;;;18.07;12.10;;;;;;;5.73;59.95;98501.88;8367908;28;20582;-77
2021/01/18 14:20:58;;;;;;;16.13;10.53;;;;;;;5.87;59.98;98507.63;8366278;28;20208;-77
2021/01/18 14:25:00;;;;;;;15.47;10.90;;;;;;;5.77;60.08;98511.25;8366228;28;20199;-77
2021/01/18 14:29:02;;;;;;;16.47;11.10;;;;;;;5.72;60.53;98513.03;8365844;28;20227;-77
2021/01/18 14:33:04;;;;;;;14.90;10.20;;;;;;;5.69;60.47;98507.94;8366726;28;20235;-77
2021/01/18 14:37:07;;;;;;;18.83;8.70;;;;;;;8.17;76.21;98505.38;8368038;28;20211;-78
2021/01/18 14:41:08;;;;;;;11.97;8.93;;;;;;;7.60;57.92;98494.72;8366746;28;20196;-77
2021/01/18 14:45:11;;;;;;;10.23;8.60;;;;;;;6.88;58.26;98495.50;8365584;28;20199;-77
2021/01/18 14:49:13;;;;;;;11.07;8.00;;;;;;;6.42;58.50;98490.41;8366620;28;20759;-77
2021/01/18 14:53:16;;;;;;;11.77;8.13;;;;;;;6.41;58.79;98493.00;8366947;28;20203;-77
2021/01/18 14:57:20;;;;;;;10.70;8.00;;;;;;;6.29;59.11;98496.66;8365935;28;20208;-77
2021/01/18 15:01:23;;;;;;;12.53;8.27;;;;;;;6.28;59.06;98489.81;8366313;28;20204;-77
2021/01/18 15:05:26;;;;;;;13.33;8.40;;;;;;;6.22;59.19;98493.34;8367627;28;20599;-77
2021/01/18 15:09:29;;;;;;;11.80;8.40;;;;;;;6.06;58.74;98492.78;8365672;28;20286;-77
2021/01/18 15:13:30;;;;;;;10.37;8.40;;;;;;;6.02;59.38;98491.13;8365594;28;20306;-76
2021/01/18 15:17:32;;;;;;;12.83;8.83;;;;;;;5.98;59.37;98489.50;8365643;28;20204;-77
2021/01/18 15:21:34;;;;;;;12.30;8.53;;;;;;;5.98;59.52;98486.09;8365946;28;20200;-77
2021/01/18 15:25:37;;;;;;;13.60;9.07;;;;;;;6.04;59.30;98491.94;8371303;28;20208;-77
2021/01/18 15:29:39;;;;;;;14.63;12.43;;;;;;;5.92;59.59;98496.41;8371681;28;20234;-77
2021/01/18 15:33:40;;;;;;;16.73;13.53;;;;;;;5.94;59.37;98497.25;8371774;28;20303;-77
2021/01/18 15:37:42;;;;;;;12.60;10.50;;;;;;;5.92;59.81;98491.28;8372228;28;20208;-77
2021/01/18 15:41:45;;;;;;;12.33;8.53;;;;;;;5.73;59.89;98493.31;8371481;28;20246;-76
2021/01/18 15:45:46;;;;;;;12.73;9.07;;;;;;;5.73;59.87;98495.88;8371111;28;20216;-77
2021/01/18 15:49:48;;;;;;;14.33;8.70;;;;;;;5.73;60.08;98501.00;8371874;28;20223;-77
2021/01/18 15:53:50;;;;;;;12.27;9.80;;;;;;;5.66;60.02;98495.97;8377462;28;20200;-77
2021/01/18 15:58:09;;;;;;;13.43;9.23;;;;;;;5.60;60.31;98508.09;8376706;28;20208;-77
2021/01/18 16:02:11;;;;;;;14.37;9.40;;;;;;;5.65;59.86;98511.41;8377568;28;20230;-77
2021/01/18 16:06:13;;;;;;;13.33;9.00;;;;;;;5.71;59.75;98513.88;8379261;28;20207;-77
2021/01/18 16:10:16;;;;;;;15.13;9.10;;;;;;;5.70;59.73;98513.94;8380242;28;20285;-77
2021/01/18 16:14:19;;;;;;;9.00;7.47;;;;;;;5.51;60.17;98510.81;8376289;28;20557;-77
2021/01/18 16:18:20;;;;;;;11.47;7.83;;;;;;;5.51;60.29;98506.50;8375913;28;20207;-77
2021/01/18 16:22:22;;;;;;;13.27;9.33;;;;;;;5.59;60.06;98507.22;8375063;28;20210;-76
2021/01/18 16:26:29;;;;;;;12.03;8.87;;;;;;;5.55;60.21;98515.84;8376322;28;20191;-76
2021/01/18 16:30:31;;;;;;;12.27;9.33;;;;;;;5.58;60.11;98510.69;8357630;28;20706;-77
2021/01/18 16:34:37;;;;;;;10.17;8.00;;;;;;;5.40;60.55;98513.53;8374452;28;20223;-77
2021/01/18 16:38:39;;;;;;;11.83;7.80;;;;;;;5.35;61.07;98510.16;8374493;28;20204;-76
2021/01/18 16:42:41;;;;;;;13.17;8.90;;;;;;;5.14;61.59;98514.75;8370635;28;20235;-77
2021/01/18 16:46:43;;;;;;;10.87;8.23;;;;;;;5.34;61.10;98517.03;8375236;28;20203;-76
2021/01/18 16:50:45;;;;;;;13.32;8.88;;;;;;;5.70;60.29;98519.06;8372544;28;20794;-76
2021/01/18 16:54:47;;;;;;;13.50;7.87;;;;;;;5.32;61.27;98521.34;8372050;28;20207;-77
2021/01/18 16:58:50;;;;;;;12.73;7.83;;;;;;;5.29;61.34;98508.53;8370686;28;20728;-77
2021/01/18 17:02:52;;;;;;;11.60;7.80;;;;;;;5.27;61.27;98516.28;8371144;28;20204;-77
2021/01/18 17:06:57;;;;;;;10.83;7.23;;;;;;;5.36;61.27;98519.59;8385504;28;20232;-77
2021/01/18 17:10:59;;;;;;;13.20;7.27;;;;;;;5.44;60.94;98518.56;8304601;28;20196;-76
2021/01/18 17:15:01;;;;;;;10.00;7.47;;;;;;;5.53;60.63;98515.03;8309097;28;20204;-77
2021/01/18 17:19:04;;;;;;;10.97;7.77;;;;;;;5.43;61.25;98510.91;8308262;28;20593;-77
2021/01/18 17:23:05;;;;;;;12.47;6.70;;;;;;;5.31;61.58;98503.38;8306356;28;20209;-77
2021/01/18 17:27:07;;;;;;;10.30;6.27;;;;;;;5.34;61.15;98493.91;8312453;28;20228;-77
2021/01/18 17:31:09;;;;;;;11.60;6.70;;;;;;;5.35;61.33;98498.19;8304689;28;20201;-76
2021/01/18 17:35:13;;;;;;;9.90;5.43;;;;;;;5.15;62.49;98493.31;8305419;28;20251;-77
2021/01/18 17:39:14;;;;;;;9.63;5.70;;;;;;;5.12;62.78;98498.50;8304334;28;20208;-76
2021/01/18 17:43:16;;;;;;;10.13;5.63;;;;;;;5.12;63.42;98501.06;8303424;28;20578;-77
2021/01/18 17:47:18;;;;;;;11.00;6.10;;;;;;;5.20;63.04;98496.69;8300900;28;20923;-76
2021/01/18 17:51:21;;;;;;;9.23;4.83;;;;;;;5.00;63.77;98499.50;8301444;28;20657;-76
2021/01/18 17:55:23;;;;;;;9.50;5.70;;;;;;;4.86;64.90;98502.28;8302347;28;20197;-77
2021/01/18 17:59:24;;;;;;;9.03;5.33;;;;;;;5.05;64.28;98504.59;8302417;28;20653;-77
2021/01/18 18:03:26;;;;;;;10.17;6.20;;;;;;;4.99;64.65;98505.53;8301945;28;20217;-78
2021/01/18 18:07:34;;;;;;;9.70;6.50;;;;;;;5.07;64.75;98516.53;8308953;28;20239;-77
2021/01/18 18:11:36;;;;;;;7.67;5.80;;;;;;;5.09;64.83;98522.50;8334407;28;20193;-77
2021/01/18 18:15:38;;;;;;;9.83;5.37;;;;;;;5.09;64.95;98519.94;8333655;28;20205;-77
2021/01/18 18:19:39;;;;;;;9.27;5.27;;;;;;;5.23;64.52;98527.44;8333350;28;20201;-76
2021/01/18 18:23:42;;;;;;;7.90;5.53;;;;;;;5.08;64.94;98525.97;8334743;28;20197;-77
2021/01/18 18:27:45;;;;;;;11.17;5.33;;;;;;;5.09;64.78;98521.66;8335094;28;20668;-77
2021/01/18 18:31:47;;;;;;;7.70;5.53;;;;;;;5.02;65.10;98530.31;8334173;28;20224;-77
2021/01/18 18:35:53;;;;;;;11.43;5.43;;;;;;;5.11;64.87;98525.06;8334753;28;20279;-77
2021/01/18 18:39:55;;;;;;;9.33;5.60;;;;;;;4.89;65.44;98515.06;8334306;28;20648;-77
2021/01/18 18:43:57;;;;;;;9.03;5.47;;;;;;;5.04;64.58;98518.28;8334473;28;20228;-77
2021/01/18 18:47:59;;;;;;;10.97;5.27;;;;;;;5.05;64.90;98515.72;8334027;28;20692;-77
2021/01/18 18:52:03;;;;;;;9.13;5.40;;;;;;;5.17;64.37;98506.16;8335100;28;20262;-77
2021/01/18 18:56:06;;;;;;;8.80;5.60;;;;;;;5.11;64.66;98512.22;8335183;28;20212;-76
2021/01/18 19:00:10;;;;;;;9.77;5.77;;;;;;;5.12;64.42;98513.91;8342743;28;20204;-77
2021/01/18 19:04:12;;;;;;;9.87;5.60;;;;;;;5.10;64.62;98510.50;8342143;28;20211;-77
2021/01/18 19:08:14;;;;;;;10.83;5.47;;;;;;;5.06;64.13;98514.84;8340677;28;20239;-77